Flight Track Log - Related Links

Times and Time Zones

All times are in EDT time to prevent confusion due to time zone crossing. See the ASH3726 flight status page for this flight to view local times or setup timezone preferences in your user account.

Time Position Orientation Groundspeed Altitude Reporting Facility
EDT Latitude Longitude Course Direction KTS MPH feet Rate Location/Type
Thu 03:24:26 PM 39.7000 -86.3000 79° East 158 182 1,400  Level Indianapolis TRACON
Thu 03:25:20 PM 39.6500 -86.3167 194° South 214 246 2,700 1,560 Climbing Indianapolis TRACON
Thu 03:26:06 PM 39.6361 -86.2631 109° East 213 245 4,000 2,000 Climbing Indianapolis Center
Thu 03:27:00 PM 39.7782 -85.8028 79° East  Level FlightAware Approximate
Thu 03:27:08 PM 39.6492 -86.1694 80° East 269 310 6,300  Level Indianapolis Center
Thu 03:28:00 PM 39.8041 -85.6420 78° East  Level FlightAware Approximate
Thu 03:28:10 PM 39.6736 -86.0719 72° East 288 331 9,000  Level Indianapolis Center
Thu 03:29:00 PM 39.8289 -85.4809 79° East  Level FlightAware Approximate
Thu 03:29:12 PM 39.7061 -85.9475 71° East 307 353 10,800  Level Indianapolis Center
Thu 03:30:14 PM 39.7378 -85.8231 72° East 362 417 12,600 1,790 Climbing Indianapolis Center
Thu 03:31:16 PM 39.7700 -85.6967 72° East 371 427 14,500 1,790 Climbing Indianapolis Center
Thu 03:32:18 PM 39.8033 -85.5650 72° East 383 441 16,300 1,536 Climbing Indianapolis Center
Thu 03:33:21 PM 39.8378 -85.4269 72° East 400 460 17,700 1,500 Climbing Indianapolis Center
Thu 03:34:22 PM 39.8733 -85.2861 72° East 409 471 19,400 1,561 Climbing Indianapolis Center
Thu 03:35:24 PM 39.8908 -85.0994 83° East 437 503 20,900 1,440 Climbing Indianapolis Center
Thu 03:36:27 PM 39.8992 -84.9403 86° East 441 507 22,400 1,296 Climbing Indianapolis Center
Thu 03:37:29 PM 39.9072 -84.7828 86° East 450 518 23,600 1,113 Climbing Indianapolis Center
Thu 03:38:31 PM 39.9161 -84.6158 86° East 457 526 24,700 1,210 Climbing Indianapolis Center
Thu 03:39:33 PM 39.9256 -84.4186 86° East 462 532 26,100 1,032 Climbing Indianapolis Center
Thu 03:41:37 PM 39.9403 -84.0736 87° East 476 548 27,900 903 Climbing Indianapolis Center
Thu 03:42:39 PM 39.9467 -83.8950 87° East 486 559 28,900 871 Climbing Indianapolis Center
Thu 03:43:41 PM 39.9536 -83.7156 87° East 490 564 29,700 726 Climbing Indianapolis Center
Thu 03:44:43 PM 39.9600 -83.5292 87° East 499 574 30,400 677 Climbing Indianapolis Center
Thu 03:45:45 PM 39.9672 -83.3369 87° East 510 587 31,100 1,065 Climbing Indianapolis Center
Thu 03:46:47 PM 39.9711 -83.1528 88° East 502 578 32,600 919 Climbing Indianapolis Center
Thu 03:47:49 PM 39.9767 -82.9722 88° East 495 570 33,000 194 Climbing Indianapolis Center
Thu 03:48:51 PM 39.9814 -82.7856 88° East 507 583 33,000  Level Indianapolis Center
Thu 03:49:53 PM 39.9875 -82.5683 88° East 510 587 33,000  Level Indianapolis Center
Thu 03:50:55 PM 39.9917 -82.3808 88° East 513 590 33,000  Level Indianapolis Center
Thu 03:51:57 PM 39.9950 -82.1928 89° East 513 590 33,000  Level Indianapolis Center
Thu 03:52:59 PM 39.9997 -82.0061 88° East 512 589 33,000  Level Indianapolis Center
Thu 03:54:01 PM 40.0028 -81.8200 89° East 512 589 33,000  Level Indianapolis Center
Thu 03:55:04 PM 40.0061 -81.6119 89° East 513 590 33,000  Level Indianapolis Center
Thu 03:56:06 PM 40.0092 -81.4272 89° East 509 586 33,000  Level Indianapolis Center
Thu 03:57:08 PM 39.9908 -81.2419 97° East 512 589 33,000  Level Indianapolis Center
Thu 03:58:10 PM 39.9447 -81.0775 110° East 515 593 33,000  Level Indianapolis Center
Thu 03:59:12 PM 39.8958 -80.9033 110° East 513 590 33,000  Level Indianapolis Center
Thu 04:00:14 PM 39.8364 -80.6939 110° East 513 590 33,000  Level Indianapolis Center
Thu 04:00:45 PM 39.8192 -80.6236 108° East 511 588 33,000  Level Cleveland Center
Thu 04:01:45 PM 39.7689 -80.4508 111° Southeast 511 588 33,000 -697 Level Cleveland Center
Thu 04:03:20 PM 39.6856 -80.1719 111° Southeast 513 590 31,200 -1,257 Descending Indianapolis Center
Thu 04:04:13 PM 39.6447 -80.0222 109° East 502 578 29,900 -1,513 Descending Washington Center
Thu 04:05:15 PM 39.5947 -79.8519 111° Southeast 502 578 28,300 -1,438 Descending Washington Center
Thu 04:06:14 PM 39.5406 -79.6686 111° Southeast 497 572 27,000 -1,150 Descending Washington Center
Thu 04:07:15 PM 39.4978 -79.5100 109° East 486 559 26,000 -1,613 Descending Washington Center
Thu 04:08:13 PM 39.4675 -79.3525 104° East 469 540 23,800 -2,034 Descending Washington Center
Thu 04:09:13 PM 39.4425 -79.2142 103° East 453 521 22,000 -1,884 Descending Washington Center
Thu 04:10:14 PM 39.4156 -79.0650 103° East 435 501 20,000 -2,083 Descending Washington Center
Thu 04:11:14 PM 39.3903 -78.9269 103° East 411 473 17,800 -2,083 Descending Washington Center
Thu 04:12:15 PM 39.3650 -78.7914 104° East 396 456 15,800 -1,866 Descending Washington Center
Thu 04:13:13 PM 39.3433 -78.6592 102° East 383 441 14,100 -1,008 Descending Washington Center
Thu 04:14:14 PM 39.3194 -78.5292 103° East 377 434 13,800 -885 Descending Washington Center
Thu 04:15:15 PM 39.2933 -78.3994 105° East 377 434 12,300 -1,388 Descending Washington Center
Thu 04:16:15 PM 39.2458 -78.2906 119° Southeast 364 419 11,000 -864 Descending Washington Center
Thu 04:17:13 PM 39.1978 -78.1975 124° Southeast 334 384 10,600 -958 Descending Washington Center
Thu 04:18:14 PM 39.1497 -78.1075 125° Southeast 321 369 9,100 -787 Descending Washington Center
Thu 04:19:15 PM 39.1014 -78.0203 126° Southeast 307 353 9,000 -655 Descending Washington Center
Thu 04:20:13 PM 39.0533 -77.9306 125° Southeast 302 348 7,800 -1,017 Descending Washington Center
Thu 04:21:13 PM 39.0050 -77.8328 122° Southeast 302 348 7,000 -885 Descending Washington Center
Thu 04:22:15 PM 38.9650 -77.7408 119° Southeast 291 335 6,000 -492 Descending Washington Center
Thu 04:23:15 PM 38.9586 -77.6392 95° East 286 329 6,000  Level Washington Center
Thu 04:24:32 PM 39.0500 -77.5667 32° Northeast 296 341 6,000  Level Potomac TRACON
Thu 04:25:32 PM 39.1333 -77.5667 360° North 273 314 6,000 -600 Level Potomac TRACON
Thu 04:26:32 PM 39.1667 -77.5167 49° Northeast 260 299 4,800 -1,450 Descending Potomac TRACON
Thu 04:27:32 PM 39.1500 -77.4500 108° East 240 276 3,100 -900 Descending Potomac TRACON
Thu 04:28:32 PM 39.1000 -77.4500 180° South 189 217 3,000 -100 Descending Potomac TRACON

Login

Don't have an account? Register now (free) for customized features, flight alerts, and more!